Time;durP1;ratioP1;P1;durP2;ratioP2;P2;SDS_P1;SDS_P2;PMS_P1;PMS_P2;Temp;Humidity;BMP_temperature;BMP_pressure;BME280_temperature;BME280_humidity;BME280_pressure;Samples;Min_cycle;Max_cycle;Signal;HPM_P1;HPM_P2
2023/01/18 00:01:35;;;;;;;12.10;3.72;;;-1.80;99.90;;;;;;5050097;28;20127;-37
2023/01/18 00:04:01;;;;;;;9.40;4.00;;;-1.70;99.90;;;;;;5068005;28;20450;-37
2023/01/18 00:06:26;;;;;;;6.00;3.17;;;-1.70;99.90;;;;;;5066882;28;20123;-37
2023/01/18 00:08:54;;;;;;;9.88;3.60;;;-1.80;99.90;;;;;;5067276;28;20045;-37
2023/01/18 00:11:19;;;;;;;7.40;3.47;;;-1.80;99.90;;;;;;5049180;28;20044;-37
2023/01/18 00:13:46;;;;;;;8.23;3.50;;;-1.60;99.90;;;;;;5067582;28;20040;-37
2023/01/18 00:16:20;;;;;;;6.82;3.45;;;-1.80;99.90;;;;;;5067682;28;20040;-37
2023/01/18 00:18:54;;;;;;;8.45;3.70;;;-1.90;99.90;;;;;;5067823;28;20046;-37
2023/01/18 00:21:20;;;;;;;8.15;3.78;;;-1.90;99.90;;;;;;5067475;28;20048;-37
2023/01/18 00:23:46;;;;;;;7.47;4.30;;;-2.00;99.90;;;;;;5067471;28;20163;-37
2023/01/18 00:26:12;;;;;;;6.50;3.17;;;-1.90;99.90;;;;;;5067240;28;20656;-37
2023/01/18 00:28:39;;;;;;;8.77;4.00;;;-1.90;99.90;;;;;;5067002;28;20044;-37
2023/01/18 00:31:16;;;;;;;7.60;4.45;;;-2.00;99.90;;;;;;5067184;28;20344;-37
2023/01/18 00:33:46;;;;;;;6.57;4.45;;;-2.00;99.90;;;;;;5067521;28;20079;-37
2023/01/18 00:36:14;;;;;;;7.47;4.45;;;-2.10;99.90;;;;;;5067173;28;20044;-37
2023/01/18 00:38:39;;;;;;;9.60;4.53;;;-2.00;99.90;;;;;;5067336;28;20390;-37
2023/01/18 00:41:05;;;;;;;7.07;4.22;;;-2.30;99.90;;;;;;5067361;28;20044;-37
2023/01/18 00:43:40;;;;;;;7.70;4.18;;;-2.10;99.90;;;;;;5067364;28;20052;-37
2023/01/18 00:46:11;;;;;;;9.60;4.63;;;-2.00;99.90;;;;;;5067151;28;20036;-37
2023/01/18 00:48:40;;;;;;;9.18;3.92;;;-2.10;99.90;;;;;;5067093;28;20052;-38
2023/01/18 00:51:08;;;;;;;7.90;4.20;;;-2.10;99.90;;;;;;5066627;28;20037;-37
2023/01/18 00:53:34;;;;;;;6.85;4.20;;;-2.10;99.90;;;;;;5066821;28;20119;-37
2023/01/18 00:55:59;;;;;;;8.27;3.90;;;-2.10;99.90;;;;;;5066856;28;20116;-37
2023/01/18 00:58:25;;;;;;;7.20;4.30;;;-2.20;99.90;;;;;;5066877;28;20450;-37
2023/01/18 01:00:52;;;;;;;9.77;4.53;;;-2.10;99.90;;;;;;5066570;28;20540;-37
2023/01/18 01:03:19;;;;;;;8.50;5.55;;;-2.10;99.90;;;;;;5066162;28;20044;-37
2023/01/18 01:08:29;;;;;;;8.43;4.85;;;-2.10;99.90;;;;;;5066380;28;20130;-37
2023/01/18 01:11:08;;;;;;;8.05;4.97;;;-2.10;99.90;;;;;;5066070;28;20052;-37
2023/01/18 01:27:16;;;;;;;9.35;5.82;;;-2.20;99.90;;;;;;5065790;28;20110;-37
2023/01/18 01:29:42;;;;;;;9.23;5.45;;;-2.30;99.90;;;;;;5066053;28;20147;-37
2023/01/18 01:32:08;;;;;;;10.48;5.97;;;-2.30;99.90;;;;;;5066054;28;20482;-37
2023/01/18 01:34:34;;;;;;;7.88;5.10;;;-2.40;99.90;;;;;;5066108;28;20036;-37
2023/01/18 01:37:00;;;;;;;11.95;5.78;;;-2.40;99.90;;;;;;5066916;28;20090;-37
2023/01/18 01:39:26;;;;;;;13.23;6.47;;;-2.40;99.90;;;;;;5066692;28;20043;-38
2023/01/18 01:41:52;;;;;;;12.15;5.97;;;-2.40;99.90;;;;;;5066737;28;20048;-37
2023/01/18 01:44:23;;;;;;;9.60;6.15;;;-2.40;99.90;;;;;;5065817;28;20481;-37
2023/01/18 01:47:02;;;;;;;7.85;6.03;;;-2.40;99.90;;;;;;5065941;28;20048;-37
2023/01/18 01:49:51;;;;;;;11.95;6.50;;;-2.40;99.90;;;;;;5065785;28;20083;-37
2023/01/18 01:52:23;;;;;;;10.65;6.60;;;-2.40;99.90;;;;;;5065957;28;20041;-37
2023/01/18 01:55:00;;;;;;;11.63;6.35;;;-2.40;99.90;;;;;;5066269;28;20068;-37
2023/01/18 01:58:22;;;;;;;10.45;5.80;;;-2.50;99.90;;;;;;5065765;28;20044;-37
2023/01/18 02:00:48;;;;;;;9.70;6.35;;;-2.50;99.90;;;;;;5003372;28;20041;-37
2023/01/18 02:03:19;;;;;;;10.85;7.05;;;-2.40;99.90;;;;;;5052072;28;20098;-37
2023/01/18 02:05:50;;;;;;;9.65;6.47;;;-2.40;99.90;;;;;;5065179;28;20492;-37
2023/01/18 02:08:21;;;;;;;12.37;6.90;;;-2.50;99.90;;;;;;5065856;28;20051;-37
2023/01/18 02:10:50;;;;;;;12.27;6.60;;;-2.30;99.90;;;;;;5065774;28;20124;-37
2023/01/18 02:13:18;;;;;;;12.13;6.70;;;-2.60;99.90;;;;;;5065880;28;20147;-37
2023/01/18 02:16:09;;;;;;;16.80;8.00;;;-2.50;99.90;;;;;;5069461;28;20433;-37
2023/01/18 02:18:44;;;;;;;13.98;7.68;;;-2.40;99.90;;;;;;5069547;28;20552;-37
2023/01/18 02:21:22;;;;;;;13.90;7.72;;;-2.60;99.90;;;;;;5069657;28;20083;-37
2023/01/18 02:24:07;;;;;;;12.20;7.30;;;-2.60;99.90;;;;;;5070372;28;20049;-37
2023/01/18 02:27:01;;;;;;;13.50;7.68;;;-2.50;99.90;;;;;;5069758;28;20106;-37
2023/01/18 02:29:49;;;;;;;12.68;8.05;;;-2.50;99.90;;;;;;5069764;28;20044;-37
2023/01/18 02:32:24;;;;;;;13.90;8.10;;;-2.60;99.90;;;;;;5069935;28;20063;-37
2023/01/18 02:35:00;;;;;;;15.32;8.10;;;-2.50;99.90;;;;;;5069298;28;20043;-37
2023/01/18 02:37:54;;;;;;;11.20;7.45;;;-2.80;99.90;;;;;;5069208;28;20119;-37
2023/01/18 02:40:57;;;;;;;16.90;8.35;;;-2.70;99.90;;;;;;5069381;28;20483;-37
2023/01/18 02:46:35;;;;;;;14.80;7.60;;;-2.60;99.90;;;;;;5069531;28;20083;-37
2023/01/18 02:49:26;;;;;;;13.35;7.40;;;-2.50;99.90;;;;;;5069129;28;20049;-37
2023/01/18 02:52:00;;;;;;;14.77;8.32;;;-2.50;99.90;;;;;;5051300;28;20696;-37
2023/01/18 02:54:27;;;;;;;15.18;7.97;;;-2.50;99.90;;;;;;5069203;28;20059;-37
2023/01/18 02:56:54;;;;;;;15.57;8.23;;;-2.50;99.90;;;;;;5069503;28;20116;-37
2023/01/18 02:59:33;;;;;;;13.85;8.10;;;-2.50;99.90;;;;;;5068953;28;20048;-37
2023/01/18 03:02:05;;;;;;;12.43;7.85;;;-2.60;99.90;;;;;;5069396;28;20048;-37
2023/01/18 03:04:38;;;;;;;15.25;8.38;;;-2.60;99.90;;;;;;5068718;28;20127;-37
2023/01/18 03:07:31;;;;;;;14.32;7.75;;;-2.70;99.90;;;;;;5069184;28;20427;-37
2023/01/18 03:10:01;;;;;;;15.95;8.20;;;-2.70;99.90;;;;;;5060722;28;20052;-37
2023/01/18 03:12:45;;;;;;;14.82;8.57;;;-2.70;99.90;;;;;;5069368;28;20667;-37
2023/01/18 03:15:32;;;;;;;15.30;8.60;;;-2.80;99.90;;;;;;5068983;28;20076;-37
2023/01/18 03:18:28;;;;;;;16.67;9.30;;;-2.80;99.90;;;;;;5069450;28;20411;-37
2023/01/18 03:20:55;;;;;;;15.70;8.73;;;-0.50;99.90;;;;;;5068499;28;20106;-38
2023/01/18 03:23:37;;;;;;;18.70;9.30;;;-2.80;99.90;;;;;;5068440;28;20502;-37
2023/01/18 03:26:20;;;;;;;16.07;9.50;;;-2.80;99.90;;;;;;5068688;28;20051;-37
2023/01/18 03:35:06;;;;;;;14.27;9.63;;;-2.80;99.90;;;;;;5068259;28;20059;-37
2023/01/18 03:37:44;;;;;;;15.70;10.10;;;-2.80;99.90;;;;;;5068230;28;20040;-37
2023/01/18 03:40:20;;;;;;;16.25;10.90;;;-2.90;99.90;;;;;;5067930;28;20052;-37
2023/01/18 03:43:04;;;;;;;19.20;10.25;;;-2.90;99.90;;;;;;5067641;28;20557;-37
2023/01/18 03:45:38;;;;;;;20.85;10.95;;;-2.90;99.90;;;;;;5067561;28;20044;-37
2023/01/18 03:48:06;;;;;;;18.48;10.55;;;-2.90;99.90;;;;;;5068018;28;20040;-37
2023/01/18 03:50:47;;;;;;;17.70;10.98;;;-3.00;99.90;;;;;;5067436;28;20498;-37
2023/01/18 03:53:20;;;;;;;21.88;11.27;;;-2.90;99.90;;;;;;5067566;28;20498;-37
2023/01/18 03:55:51;;;;;;;24.98;12.57;;;-3.00;99.90;;;;;;5067522;28;20044;-37
2023/01/18 03:58:23;;;;;;;24.17;12.77;;;-2.90;99.90;;;;;;5068358;28;20539;-37
2023/01/18 04:00:51;;;;;;;17.98;11.85;;;-2.90;99.90;;;;;;5067758;28;20040;-37
2023/01/18 04:03:17;;;;;;;20.70;12.98;;;-2.90;99.90;;;;;;5067939;28;20048;-37
2023/01/18 04:05:43;;;;;;;19.55;11.48;;;-2.90;99.90;;;;;;5067453;28;20044;-37
2023/01/18 04:08:08;;;;;;;27.63;12.50;;;-2.90;99.90;;;;;;5067963;28;20056;-37
2023/01/18 04:10:34;;;;;;;19.67;11.85;;;-3.10;99.90;;;;;;5067102;28;20048;-37
2023/01/18 04:12:59;;;;;;;23.77;12.93;;;-3.00;99.90;;;;;;5067601;28;20041;-37
2023/01/18 04:15:25;;;;;;;27.27;13.23;;;-3.00;99.90;;;;;;5067548;28;20046;-37
2023/01/18 04:17:54;;;;;;;20.80;12.82;;;-3.00;99.90;;;;;;5067300;28;20044;-37
2023/01/18 04:20:20;;;;;;;22.55;13.20;;;-2.90;99.90;;;;;;5067419;28;20052;-37
2023/01/18 04:22:53;;;;;;;20.23;12.27;;;-3.00;99.90;;;;;;5066938;28;20498;-37
2023/01/18 04:25:18;;;;;;;;;;;-3.00;99.90;;;;;;5067641;28;20127;-37
2023/01/18 04:27:44;;;;;;;19.80;12.05;;;-3.00;99.90;;;;;;5067257;28;20041;-37
2023/01/18 04:30:10;;;;;;;21.02;11.95;;;-3.00;99.90;;;;;;5067461;28;20121;-37
2023/01/18 04:32:36;;;;;;;24.48;13.38;;;-3.00;99.90;;;;;;5067098;28;20040;-37
2023/01/18 04:35:02;;;;;;;21.20;13.40;;;-3.10;99.90;;;;;;5067191;28;20040;-37
2023/01/18 04:37:29;;;;;;;18.70;11.35;;;-3.00;99.90;;;;;;5066384;28;20040;-37
2023/01/18 04:39:56;;;;;;;22.02;13.25;;;-3.00;99.90;;;;;;5067156;28;20044;-37
2023/01/18 04:42:22;;;;;;;19.23;12.90;;;-3.10;99.90;;;;;;5067297;28;20221;-37
2023/01/18 04:44:48;;;;;;;25.17;13.93;;;-3.20;99.90;;;;;;5067031;28;20127;-37
2023/01/18 04:47:13;;;;;;;24.48;12.90;;;-3.10;99.90;;;;;;5067393;28;20041;-37
2023/01/18 04:49:39;;;;;;;21.90;13.85;;;-2.10;99.90;;;;;;5067226;28;20055;-37
2023/01/18 04:52:06;;;;;;;23.92;13.65;;;-0.70;99.90;;;;;;5067236;28;20049;-37
2023/01/18 04:54:31;;;;;;;21.30;13.07;;;-2.00;99.90;;;;;;5067141;28;20095;-37
2023/01/18 04:56:57;;;;;;;23.50;13.20;;;-2.20;99.90;;;;;;5066401;28;20072;-37
2023/01/18 04:59:23;;;;;;;24.13;13.52;;;-2.30;99.90;;;;;;5066635;28;20044;-37
2023/01/18 05:01:48;;;;;;;21.88;13.45;;;-2.80;99.90;;;;;;5066817;28;20048;-37
2023/01/18 05:04:14;;;;;;;17.73;12.27;;;-3.00;99.90;;;;;;5066208;28;20534;-37
2023/01/18 05:06:40;;;;;;;21.48;12.95;;;-3.10;99.90;;;;;;5066338;28;20784;-37
2023/01/18 05:09:05;;;;;;;23.75;12.77;;;-3.10;99.90;;;;;;5066734;28;20040;-37
2023/01/18 05:11:31;;;;;;;20.85;13.18;;;-3.10;99.90;;;;;;5066894;28;20087;-37
2023/01/18 05:13:57;;;;;;;22.80;13.48;;;-3.20;99.90;;;;;;5066508;28;20393;-43
2023/01/18 05:16:22;;;;;;;25.20;13.55;;;-3.20;99.90;;;;;;5065837;28;20083;-37
2023/01/18 05:18:48;;;;;;;24.27;15.07;;;-3.20;99.90;;;;;;5066324;28;20036;-37
2023/01/18 05:21:14;;;;;;;20.48;13.13;;;-3.10;99.90;;;;;;5066349;28;20060;-37
2023/01/18 05:23:40;;;;;;;19.05;12.15;;;-3.20;99.90;;;;;;5066566;28;20048;-37
2023/01/18 05:26:13;;;;;;;21.23;12.82;;;-3.20;99.90;;;;;;5066403;28;20599;-37
2023/01/18 05:28:39;;;;;;;26.38;13.38;;;-3.20;99.90;;;;;;5066289;28;20557;-37
2023/01/18 05:31:05;;;;;;;18.67;12.57;;;-3.20;99.90;;;;;;5066279;28;20044;-37
2023/01/18 05:33:31;;;;;;;21.30;12.48;;;-3.10;99.90;;;;;;5066063;28;20048;-37
2023/01/18 05:35:56;;;;;;;20.27;12.57;;;-3.20;99.90;;;;;;5065601;28;20125;-37
2023/01/18 05:38:22;;;;;;;18.17;12.23;;;-3.10;99.90;;;;;;5066354;28;20079;-37
2023/01/18 05:40:54;;;;;;;21.17;12.77;;;-3.10;99.90;;;;;;5065745;28;20147;-37
2023/01/18 05:43:21;;;;;;;21.13;12.27;;;-3.10;99.90;;;;;;5066456;28;20131;-37
2023/01/18 05:45:47;;;;;;;21.52;12.57;;;-3.10;99.90;;;;;;5065748;28;20051;-37
2023/01/18 05:48:13;;;;;;;19.88;12.77;;;-2.70;99.90;;;;;;5065873;28;20045;-37
2023/01/18 05:50:43;;;;;;;18.75;12.40;;;-3.00;99.90;;;;;;5066190;28;20059;-37
2023/01/18 05:53:09;;;;;;;22.58;13.10;;;-2.90;99.90;;;;;;5047680;28;20098;-37
2023/01/18 05:55:35;;;;;;;21.73;13.68;;;-2.90;99.90;;;;;;5066357;28;20037;-37
2023/01/18 05:58:01;;;;;;;18.33;11.95;;;-2.90;99.90;;;;;;5066458;28;20045;-37
2023/01/18 06:00:27;;;;;;;21.85;12.25;;;-2.90;99.90;;;;;;5066332;28;20087;-37
2023/01/18 06:02:53;;;;;;;19.38;12.20;;;-2.90;99.90;;;;;;5066189;28;20306;-37
2023/01/18 06:05:20;;;;;;;22.75;14.38;;;-2.90;99.90;;;;;;5065876;28;20049;-37
2023/01/18 06:07:49;;;;;;;20.20;13.23;;;-2.80;99.90;;;;;;5066081;28;20456;-37
2023/01/18 06:10:15;;;;;;;22.48;13.13;;;-2.90;99.90;;;;;;5065671;28;20054;-37
2023/01/18 06:12:41;;;;;;;18.85;12.63;;;-2.80;99.90;;;;;;5066090;28;20043;-37
2023/01/18 06:15:07;;;;;;;21.52;12.88;;;-2.90;99.90;;;;;;5066019;28;20110;-37
2023/01/18 06:17:34;;;;;;;21.90;13.65;;;-2.80;99.90;;;;;;5065737;28;20194;-37
2023/01/18 06:20:00;;;;;;;26.17;13.45;;;-2.90;99.90;;;;;;5065818;28;20036;-37
2023/01/18 06:22:25;;;;;;;21.30;12.55;;;-2.90;99.90;;;;;;5065922;28;20103;-36
2023/01/18 06:24:51;;;;;;;20.73;13.75;;;-2.80;99.90;;;;;;5066006;28;20364;-36
2023/01/18 06:27:17;;;;;;;21.77;13.35;;;-2.90;99.90;;;;;;5066015;28;20094;-36
2023/01/18 06:29:42;;;;;;;22.90;13.70;;;-2.80;99.90;;;;;;5065021;28;20054;-37
2023/01/18 06:32:08;;;;;;;20.98;12.90;;;-2.80;99.90;;;;;;5065307;28;20896;-37
2023/01/18 06:34:35;;;;;;;21.60;13.07;;;-2.90;99.90;;;;;;5065799;28;20466;-36
2023/01/18 06:37:02;;;;;;;21.65;13.45;;;-2.80;99.90;;;;;;5065482;28;20052;-36
2023/01/18 06:39:28;;;;;;;21.65;13.80;;;-2.80;99.90;;;;;;5065690;28;20127;-37
2023/01/18 06:41:54;;;;;;;24.85;14.32;;;-2.90;99.90;;;;;;5065705;28;20123;-37
2023/01/18 06:44:20;;;;;;;24.02;14.60;;;-2.90;99.90;;;;;;5065468;28;20040;-37
2023/01/18 06:46:46;;;;;;;22.13;13.43;;;-2.90;99.90;;;;;;5065150;28;20048;-37
2023/01/18 06:49:12;;;;;;;23.65;14.02;;;-2.90;99.90;;;;;;5064817;28;20045;-37
2023/01/18 06:51:38;;;;;;;22.27;13.43;;;-2.90;99.90;;;;;;5065337;28;20044;-37
2023/01/18 06:54:04;;;;;;;22.80;13.82;;;-3.00;99.90;;;;;;5064844;28;20051;-37
2023/01/18 06:56:30;;;;;;;25.42;13.40;;;-2.50;99.90;;;;;;5065554;28;20044;-36
2023/01/18 06:58:57;;;;;;;21.02;13.65;;;-3.00;99.90;;;;;;5065277;28;20040;-36
2023/01/18 07:01:24;;;;;;;25.58;13.00;;;-3.10;99.90;;;;;;5068453;28;20052;-36
2023/01/18 07:03:50;;;;;;;22.98;12.85;;;-3.00;99.90;;;;;;5068260;28;20048;-37
2023/01/18 07:06:16;;;;;;;22.15;12.88;;;-3.00;99.90;;;;;;5068395;28;20218;-37
2023/01/18 07:08:43;;;;;;;25.08;13.48;;;-3.10;99.90;;;;;;5068707;28;20047;-37
2023/01/18 07:11:11;;;;;;;32.28;14.07;;;-3.00;99.90;;;;;;5068844;28;20036;-37
2023/01/18 07:13:42;;;;;;;21.98;11.82;;;-3.00;99.90;;;;;;5068800;28;20478;-36
2023/01/18 07:16:12;;;;;;;23.00;12.90;;;-2.90;99.90;;;;;;5068460;28;20043;-36
2023/01/18 07:18:42;;;;;;;23.52;12.68;;;-2.90;99.90;;;;;;5069111;28;20435;-37
2023/01/18 07:21:09;;;;;;;18.38;12.52;;;-2.90;99.90;;;;;;5068481;28;20774;-37
2023/01/18 07:23:37;;;;;;;20.52;12.20;;;-2.90;99.90;;;;;;5068632;28;20137;-37
2023/01/18 07:26:15;;;;;;;24.45;12.52;;;-2.90;99.90;;;;;;5068220;28;20037;-37
2023/01/18 07:28:42;;;;;;;20.20;11.65;;;-2.90;99.90;;;;;;5068426;28;20040;-37
2023/01/18 07:31:08;;;;;;;23.50;13.60;;;-2.90;99.90;;;;;;5068199;28;20048;-37
2023/01/18 07:33:35;;;;;;;23.10;12.98;;;-2.90;99.90;;;;;;5067892;28;20461;-37
2023/01/18 07:36:03;;;;;;;23.10;12.07;;;-2.90;99.90;;;;;;5068367;28;20051;-37
2023/01/18 07:38:29;;;;;;;24.10;11.60;;;-3.00;99.90;;;;;;5068122;28;20044;-37
2023/01/18 07:41:07;;;;;;;23.40;12.90;;;-3.00;99.90;;;;;;5068391;28;20043;-37
2023/01/18 07:43:34;;;;;;;24.23;14.45;;;-3.00;99.90;;;;;;5066863;28;20048;-37
2023/01/18 07:46:02;;;;;;;22.85;13.25;;;-3.00;99.90;;;;;;5068485;28;20074;-37
2023/01/18 07:48:29;;;;;;;21.00;12.32;;;-3.10;99.90;;;;;;5068467;28;20048;-37
2023/01/18 07:50:57;;;;;;;23.00;13.43;;;-3.10;99.90;;;;;;5069046;28;20044;-37
2023/01/18 07:53:24;;;;;;;27.02;14.40;;;-3.00;99.90;;;;;;5068417;28;20106;-37
2023/01/18 07:55:50;;;;;;;22.95;13.68;;;-2.90;99.90;;;;;;5068869;28;20231;-37
2023/01/18 07:58:17;;;;;;;25.33;14.43;;;-3.00;99.90;;;;;;5068063;28;20045;-37
2023/01/18 08:00:43;;;;;;;22.45;13.10;;;-3.00;99.90;;;;;;5068656;28;20074;-37
2023/01/18 08:03:13;;;;;;;21.92;13.98;;;-3.00;99.90;;;;;;5067564;28;20040;-37
2023/01/18 08:05:43;;;;;;;23.05;13.35;;;-3.00;99.90;;;;;;5068492;28;20131;-37
2023/01/18 08:08:10;;;;;;;21.73;13.85;;;-3.00;99.90;;;;;;5068093;28;20131;-37
2023/01/18 08:10:37;;;;;;;23.67;14.43;;;-2.90;99.90;;;;;;5067472;28;20080;-37
2023/01/18 08:13:03;;;;;;;23.38;14.32;;;-3.00;99.90;;;;;;5066803;28;20055;-37
2023/01/18 08:15:30;;;;;;;22.90;14.45;;;-2.90;99.90;;;;;;5067475;28;20115;-37
2023/01/18 08:17:59;;;;;;;25.95;15.00;;;-2.90;99.90;;;;;;5067239;28;20045;-37
2023/01/18 08:20:25;;;;;;;25.63;13.88;;;-3.00;99.90;;;;;;5067206;28;20105;-37
2023/01/18 08:22:55;;;;;;;24.02;15.18;;;-2.80;99.90;;;;;;5067577;28;20073;-37
2023/01/18 08:25:22;;;;;;;23.73;14.98;;;-2.80;99.90;;;;;;5067384;28;20036;-37
2023/01/18 08:27:48;;;;;;;27.13;15.82;;;-2.80;99.90;;;;;;5067878;28;20162;-37
2023/01/18 08:30:13;;;;;;;29.13;15.80;;;-2.80;99.90;;;;;;5067439;28;20049;-37
2023/01/18 08:32:39;;;;;;;24.48;16.13;;;-2.80;99.90;;;;;;5066698;28;20783;-37
2023/01/18 08:35:06;;;;;;;29.80;17.45;;;-2.80;99.90;;;;;;5067247;28;20052;-37
2023/01/18 08:37:32;;;;;;;33.25;17.90;;;-2.70;99.90;;;;;;5067452;28;20041;-37
2023/01/18 08:39:57;;;;;;;27.65;16.02;;;-2.80;99.90;;;;;;5067595;28;20040;-37
2023/01/18 08:42:23;;;;;;;26.88;16.05;;;-2.80;99.90;;;;;;5067522;28;20550;-37
2023/01/18 08:44:49;;;;;;;27.55;16.05;;;-2.80;99.90;;;;;;5067540;28;20045;-37
2023/01/18 08:47:14;;;;;;;27.83;15.93;;;-2.80;99.90;;;;;;5067135;28;20056;-37
2023/01/18 08:49:40;;;;;;;27.23;15.75;;;-2.80;99.90;;;;;;5066953;28;20155;-37
2023/01/18 08:52:09;;;;;;;28.27;18.10;;;-2.70;99.90;;;;;;5067108;28;20098;-37
2023/01/18 08:54:35;;;;;;;25.60;15.48;;;-2.70;99.90;;;;;;5066830;28;20260;-37
2023/01/18 08:57:01;;;;;;;32.53;16.48;;;-2.70;99.90;;;;;;5066868;28;20106;-37
2023/01/18 08:59:27;;;;;;;26.00;16.67;;;-2.60;99.90;;;;;;5067085;28;20477;-37
2023/01/18 09:01:52;;;;;;;27.38;16.10;;;-2.50;99.90;;;;;;5067322;28;20059;-38
2023/01/18 09:04:18;;;;;;;22.85;14.93;;;-2.50;99.90;;;;;;5066899;28;20067;-37
2023/01/18 09:06:45;;;;;;;24.10;15.90;;;-2.50;99.90;;;;;;5067165;28;20040;-37
2023/01/18 09:09:11;;;;;;;27.80;15.48;;;-2.40;99.90;;;;;;5067105;28;20457;-37
2023/01/18 09:11:37;;;;;;;25.65;16.63;;;-2.30;99.90;;;;;;5066866;28;20056;-38
2023/01/18 09:14:02;;;;;;;25.80;16.42;;;-2.20;99.90;;;;;;5067002;28;20036;-37
2023/01/18 09:16:29;;;;;;;22.88;15.52;;;-2.20;99.90;;;;;;5066989;28;20509;-37
2023/01/18 09:18:56;;;;;;;25.35;16.00;;;-2.10;99.90;;;;;;5067069;28;20470;-37
2023/01/18 09:21:23;;;;;;;26.50;15.57;;;-2.20;99.90;;;;;;5067039;28;20060;-37
2023/01/18 09:23:49;;;;;;;25.00;14.95;;;-2.10;99.90;;;;;;5067298;28;20479;-37
2023/01/18 09:26:17;;;;;;;26.40;16.27;;;-1.90;99.90;;;;;;5067143;28;20386;-37
2023/01/18 09:28:43;;;;;;;26.13;16.30;;;-1.80;99.90;;;;;;5066591;28;20040;-37
2023/01/18 09:31:11;;;;;;;29.67;16.90;;;-1.80;99.90;;;;;;5066520;28;20044;-37
2023/01/18 09:33:38;;;;;;;25.90;15.82;;;-1.40;99.90;;;;;;5066191;28;20431;-37
2023/01/18 09:36:09;;;;;;;24.60;15.02;;;-1.20;99.90;;;;;;5066548;28;20036;-37
2023/01/18 09:38:36;;;;;;;25.63;15.88;;;-1.10;99.90;;;;;;5066563;28;20044;-37
2023/01/18 09:41:06;;;;;;;26.85;15.82;;;-1.10;99.90;;;;;;5066786;28;20090;-37
2023/01/18 09:43:39;;;;;;;28.45;16.10;;;-0.90;99.90;;;;;;5066204;28;20448;-37
2023/01/18 09:46:20;;;;;;;22.90;15.18;;;-0.90;99.90;;;;;;5048231;28;20873;-37
2023/01/18 09:48:53;;;;;;;26.50;15.40;;;-0.80;99.90;;;;;;5066621;28;20048;-37
2023/01/18 09:51:22;;;;;;;23.45;14.18;;;-0.80;99.90;;;;;;5066924;28;20044;-37
2023/01/18 09:54:00;;;;;;;25.92;15.25;;;-0.80;99.90;;;;;;5066818;28;20036;-37
2023/01/18 09:56:30;;;;;;;21.65;14.52;;;-0.80;99.90;;;;;;5066531;28;20044;-37
2023/01/18 09:58:59;;;;;;;24.38;15.93;;;-0.80;99.90;;;;;;5065602;28;20051;-36
2023/01/18 10:01:30;;;;;;;21.23;14.27;;;-0.80;99.90;;;;;;5060720;28;20052;-37
2023/01/18 10:04:05;;;;;;;20.67;14.00;;;-0.70;99.90;;;;;;5061912;28;20048;-37
2023/01/18 10:06:46;;;;;;;24.55;14.40;;;-0.50;99.90;;;;;;5062332;28;20076;-37
2023/01/18 10:09:21;;;;;;;20.73;13.67;;;-0.60;99.90;;;;;;5063180;28;20040;-37
2023/01/18 10:11:58;;;;;;;22.48;13.82;;;-0.50;99.90;;;;;;5037522;28;20044;-37
2023/01/18 10:14:50;;;;;;;20.88;13.23;;;-0.40;99.90;;;;;;5039123;28;20045;-39
2023/01/18 10:17:38;;;;;;;18.80;12.60;;;-0.30;99.90;;;;;;5041917;28;20045;-39
2023/01/18 10:20:32;;;;;;;21.58;13.95;;;-0.20;99.90;;;;;;5042055;28;20037;-40
2023/01/18 10:23:08;;;;;;;25.00;13.75;;;-0.20;99.90;;;;;;5040499;28;20061;-41
2023/01/18 10:25:53;;;;;;;25.05;14.38;;;-0.20;99.90;;;;;;5039880;28;20064;-42
2023/01/18 10:28:40;;;;;;;22.58;14.50;;;-0.20;99.90;;;;;;5041204;28;20506;-43
2023/01/18 10:31:36;;;;;;;20.70;13.82;;;-0.20;99.90;;;;;;5041315;28;20064;-39
2023/01/18 10:34:11;;;;;;;25.20;13.77;;;-0.20;99.90;;;;;;5041350;28;20061;-41
2023/01/18 10:36:42;;;;;;;17.77;13.00;;;-0.20;99.90;;;;;;5045154;28;20098;-41
2023/01/18 10:39:37;;;;;;;22.90;13.40;;;-0.30;99.90;;;;;;5044729;28;20041;-40
2023/01/18 10:42:16;;;;;;;21.38;12.32;;;-0.10;99.90;;;;;;5043256;28;20041;-41
2023/01/18 10:44:42;;;;;;;18.73;12.20;;;-0.10;99.90;;;;;;5043085;28;20436;-39
2023/01/18 10:47:08;;;;;;;22.20;12.77;;;1.00;99.90;;;;;;5043279;28;20052;-39
2023/01/18 10:49:39;;;;;;;17.60;11.68;;;0.20;99.90;;;;;;5044724;28;20074;-38
2023/01/18 10:52:26;;;;;;;17.83;12.60;;;0.00;99.90;;;;;;5043775;28;20685;-39
2023/01/18 10:55:06;;;;;;;22.30;12.90;;;0.00;99.90;;;;;;5044610;28;20036;-40
2023/01/18 10:57:41;;;;;;;18.60;11.85;;;0.00;99.90;;;;;;5045041;28;20037;-40
2023/01/18 11:00:20;;;;;;;18.75;12.15;;;0.10;99.90;;;;;;5026076;28;20055;-39
2023/01/18 11:02:48;;;;;;;18.75;12.18;;;0.20;99.90;;;;;;5044118;28;20495;-40
2023/01/18 11:05:31;;;;;;;15.40;11.02;;;0.20;99.90;;;;;;5044799;28;20041;-40
2023/01/18 11:08:24;;;;;;;19.27;11.10;;;0.20;99.90;;;;;;5044157;28;20045;-40
2023/01/18 11:11:02;;;;;;;17.65;10.60;;;0.20;99.90;;;;;;5043953;28;20486;-40
2023/01/18 11:13:47;;;;;;;15.07;9.90;;;0.10;99.90;;;;;;5032638;28;20124;-40
2023/01/18 11:16:21;;;;;;;16.35;11.60;;;0.30;99.90;;;;;;5042967;28;20064;-38
2023/01/18 11:18:56;;;;;;;16.23;10.80;;;0.10;99.90;;;;;;5058292;28;20187;-38
2023/01/18 11:21:23;;;;;;;16.98;10.75;;;0.20;99.90;;;;;;5043683;28;20087;-37
2023/01/18 11:23:50;;;;;;;18.25;11.30;;;0.30;99.90;;;;;;5043520;28;20602;-40
2023/01/18 11:26:20;;;;;;;17.98;11.32;;;0.50;99.90;;;;;;5043046;28;20076;-44
2023/01/18 11:28:54;;;;;;;12.68;9.20;;;0.30;99.90;;;;;;5043299;28;20048;-44
2023/01/18 11:31:25;;;;;;;15.85;10.52;;;0.30;99.90;;;;;;5043038;28;20831;-43
2023/01/18 11:34:03;;;;;;;15.70;10.32;;;0.30;99.90;;;;;;5043520;28;20052;-43
2023/01/18 11:36:38;;;;;;;12.68;9.18;;;0.30;99.90;;;;;;5041773;28;20037;-45
2023/01/18 11:39:27;;;;;;;14.05;10.27;;;0.40;99.90;;;;;;5042240;28;20072;-46
2023/01/18 11:42:12;;;;;;;16.95;9.52;;;0.40;99.90;;;;;;5041911;28;20043;-40
2023/01/18 11:45:08;;;;;;;14.43;10.40;;;0.40;99.90;;;;;;5043870;28;20045;-41
2023/01/18 11:47:56;;;;;;;14.60;8.35;;;0.50;99.90;;;;;;5028296;28;20055;-41
2023/01/18 11:50:47;;;;;;;12.52;7.10;;;0.50;99.90;;;;;;5041394;28;20682;-40
2023/01/18 11:53:19;;;;;;;14.32;7.82;;;1.30;99.90;;;;;;5043376;28;20126;-40
2023/01/18 11:56:04;;;;;;;11.05;7.20;;;0.60;99.90;;;;;;5044379;28;20511;-40
2023/01/18 11:58:31;;;;;;;13.40;8.07;;;0.60;99.90;;;;;;5045228;28;20120;-41
2023/01/18 12:01:06;;;;;;;13.02;7.80;;;0.60;99.90;;;;;;5026212;28;20057;-41
2023/01/18 12:03:32;;;;;;;11.95;7.35;;;0.70;99.90;;;;;;5044653;28;20041;-40
2023/01/18 12:06:13;;;;;;;11.15;6.75;;;0.70;99.90;;;;;;5044520;28;20047;-41
2023/01/18 12:08:44;;;;;;;10.90;6.38;;;0.80;99.90;;;;;;5044299;28;20558;-40
2023/01/18 12:11:24;;;;;;;13.85;6.57;;;0.80;99.90;;;;;;5044585;28;20064;-40
2023/01/18 12:14:00;;;;;;;10.60;6.18;;;0.80;99.90;;;;;;5044392;28;20120;-40
2023/01/18 12:17:08;;;;;;;11.15;5.80;;;0.80;99.90;;;;;;5044171;28;20558;-41
2023/01/18 12:19:48;;;;;;;11.40;5.28;;;0.90;99.90;;;;;;5033555;28;20048;-41
2023/01/18 12:22:31;;;;;;;10.55;6.10;;;0.90;99.90;;;;;;5044192;28;20867;-41
2023/01/18 12:25:14;;;;;;;9.25;5.47;;;0.90;99.90;;;;;;5044105;28;20118;-40
2023/01/18 12:27:58;;;;;;;9.07;5.03;;;1.00;99.90;;;;;;5044140;28;20051;-40
2023/01/18 12:30:41;;;;;;;5.80;4.78;;;1.00;99.90;;;;;;5043479;28;20152;-39
2023/01/18 12:33:37;;;;;;;10.77;5.22;;;1.10;99.90;;;;;;5043522;28;20049;-38
2023/01/18 12:36:21;;;;;;;11.85;5.10;;;1.10;99.90;;;;;;5043179;28;20135;-39
2023/01/18 12:38:53;;;;;;;9.30;4.82;;;1.20;99.90;;;;;;5042732;28;20442;-38
2023/01/18 12:41:40;;;;;;;9.73;5.15;;;1.20;99.90;;;;;;5042208;28;20053;-38
2023/01/18 12:44:15;;;;;;;11.15;5.47;;;1.30;99.90;;;;;;5043099;28;20091;-38
2023/01/18 12:46:47;;;;;;;9.68;5.20;;;1.30;99.90;;;;;;5058825;28;20052;-39
2023/01/18 12:49:20;;;;;;;8.73;4.47;;;1.30;99.90;;;;;;5043437;28;20041;-38
2023/01/18 12:51:53;;;;;;;9.57;5.22;;;1.20;99.90;;;;;;5043306;28;20232;-38
2023/01/18 12:54:34;;;;;;;9.55;4.38;;;1.30;99.90;;;;;;5043694;28;20041;-38
2023/01/18 12:57:02;;;;;;;9.57;4.65;;;1.30;99.90;;;;;;5042126;28;20045;-38
2023/01/18 12:59:34;;;;;;;9.00;4.40;;;1.30;99.90;;;;;;5043361;28;20041;-38
2023/01/18 13:02:33;;;;;;;6.00;4.10;;;1.30;99.90;;;;;;5024699;28;20063;-39
2023/01/18 13:05:22;;;;;;;7.88;4.22;;;1.30;99.90;;;;;;5042939;28;20044;-38
2023/01/18 13:07:57;;;;;;;9.48;4.25;;;1.30;99.90;;;;;;5042925;28;20048;-38
2023/01/18 13:10:27;;;;;;;9.40;4.50;;;1.30;99.90;;;;;;5043091;28;20051;-39
2023/01/18 13:12:55;;;;;;;7.10;4.60;;;1.30;99.90;;;;;;5043031;28;20067;-39
2023/01/18 13:16:01;;;;;;;10.50;5.13;;;1.30;99.90;;;;;;5043336;28;20486;-39
2023/01/18 13:18:54;;;;;;;7.65;3.90;;;1.30;99.90;;;;;;5034508;28;20119;-39
2023/01/18 13:21:48;;;;;;;8.57;4.05;;;1.30;99.90;;;;;;5043087;28;20059;-39
2023/01/18 13:24:26;;;;;;;10.15;4.35;;;1.40;99.90;;;;;;5041914;28;20063;-39
2023/01/18 13:27:04;;;;;;;9.55;3.72;;;1.80;99.90;;;;;;5043152;28;20052;-39